Time;durP1;ratioP1;P1;durP2;ratioP2;P2;SDS_P1;SDS_P2;PMS_P1;PMS_P2;Temp;Humidity;BMP_temperature;BMP_pressure;BME280_temperature;BME280_humidity;BME280_pressure;Samples;Min_cycle;Max_cycle;Signal;HPM_P1;HPM_P2
2022/10/25 00:01:15;;;;;;;270.42;23.20;;;;;;;;;;769319;179;910954;-73
2022/10/25 00:03:41;;;;;;;29.40;13.07;;;;;;;;;;757597;183;919039;-75
2022/10/25 00:06:08;;;;;;;49.80;14.07;;;;;;;;;;770909;180;918217;-75
2022/10/25 00:08:34;;;;;;;27.00;13.77;;;;;;;;;;764961;181;919250;-69
2022/10/25 00:11:00;;;;;;;29.60;15.35;;;;;;;;;;771468;179;835239;-68
2022/10/25 00:13:25;;;;;;;23.60;14.63;;;;;;;;;;764405;180;917791;-74
2022/10/25 00:15:51;;;;;;;25.80;14.90;;;;;;;;;;765906;180;851735;-70
2022/10/25 00:18:17;;;;;;;28.70;16.33;;;;;;;;;;770306;179;920808;-70
2022/10/25 00:20:45;;;;;;;23.67;14.63;;;;;;;;;;766378;180;914753;-75
2022/10/25 00:23:09;;;;;;;21.57;15.00;;;;;;;;;;764228;181;914416;-69
2022/10/25 00:25:35;;;;;;;26.53;13.63;;;;;;;;;;766594;181;916131;-69
2022/10/25 00:28:00;;;;;;;26.37;14.57;;;;;;;;;;759234;183;811727;-76
2022/10/25 00:30:26;;;;;;;35.83;16.70;;;;;;;;;;766192;181;917478;-71
2022/10/25 00:32:53;;;;;;;28.87;15.80;;;;;;;;;;767666;179;916139;-70
2022/10/25 00:35:18;;;;;;;21.73;16.43;;;;;;;;;;772854;181;916176;-72
2022/10/25 00:37:44;;;;;;;25.23;14.20;;;;;;;;;;765892;181;1019622;-69
2022/10/25 00:40:10;;;;;;;35.67;15.00;;;;;;;;;;769235;179;890345;-69
2022/10/25 00:42:36;;;;;;;22.97;14.97;;;;;;;;;;770506;181;940061;-69
2022/10/25 00:45:02;;;;;;;28.87;18.33;;;;;;;;;;766346;179;919373;-69
2022/10/25 00:47:32;;;;;;;22.17;13.53;;;;;;;;;;764527;179;815845;-70
2022/10/25 00:50:00;;;;;;;24.33;14.50;;;;;;;;;;759324;183;922114;-69
2022/10/25 00:52:26;;;;;;;28.17;14.30;;;;;;;;;;750895;184;918942;-74
2022/10/25 00:54:51;;;;;;;23.10;13.00;;;;;;;;;;760841;180;818936;-74
2022/10/25 00:57:19;;;;;;;21.80;12.90;;;;;;;;;;768518;180;915111;-74
2022/10/25 00:59:45;;;;;;;20.07;12.47;;;;;;;;;;768805;181;815862;-70
2022/10/25 01:02:11;;;;;;;23.80;14.93;;;;;;;;;;763429;179;918995;-73
2022/10/25 01:04:37;;;;;;;15.77;11.70;;;;;;;;;;764602;179;919456;-70
2022/10/25 01:07:02;;;;;;;19.27;13.17;;;;;;;;;;765040;181;918460;-73
2022/10/25 01:09:29;;;;;;;19.37;13.40;;;;;;;;;;768638;182;918451;-70
2022/10/25 01:11:55;;;;;;;14.90;10.13;;;;;;;;;;746567;183;919051;-73
2022/10/25 01:14:21;;;;;;;21.53;11.30;;;;;;;;;;753999;183;916641;-73
2022/10/25 01:16:47;;;;;;;21.10;11.57;;;;;;;;;;769914;181;918690;-71
2022/10/25 01:19:19;;;;;;;18.77;12.50;;;;;;;;;;764095;181;919269;-73
2022/10/25 01:21:45;;;;;;;15.98;10.98;;;;;;;;;;767439;182;919867;-73
2022/10/25 01:24:27;;;;;;;17.73;10.87;;;;;;;;;;761057;181;918846;-71
2022/10/25 01:26:59;;;;;;;18.33;12.20;;;;;;;;;;757815;183;919230;-70
2022/10/25 01:29:30;;;;;;;27.90;17.30;;;;;;;;;;767113;180;916036;-70
2022/10/25 01:31:56;;;;;;;22.67;13.60;;;;;;;;;;771137;180;911160;-71
2022/10/25 01:34:22;;;;;;;19.97;14.70;;;;;;;;;;750498;179;919517;-71
2022/10/25 01:36:48;;;;;;;25.20;13.97;;;;;;;;;;767879;180;918942;-70
2022/10/25 01:39:16;;;;;;;19.20;13.27;;;;;;;;;;770881;180;814990;-71
2022/10/25 01:41:57;;;;;;;26.93;14.70;;;;;;;;;;760334;181;922126;-70
2022/10/25 01:44:42;;;;;;;28.03;13.77;;;;;;;;;;766840;181;919559;-68
2022/10/25 01:47:08;;;;;;;23.27;14.63;;;;;;;;;;762703;179;918817;-70
2022/10/25 01:49:44;;;;;;;33.53;16.95;;;;;;;;;;768401;179;918267;-70
2022/10/25 01:52:10;;;;;;;22.30;14.00;;;;;;;;;;756462;183;920190;-74
2022/10/25 01:54:35;;;;;;;23.47;15.90;;;;;;;;;;772308;181;904851;-70
2022/10/25 01:57:04;;;;;;;20.97;15.10;;;;;;;;;;769103;179;904952;-70
2022/10/25 01:59:33;;;;;;;23.00;17.07;;;;;;;;;;763057;181;1010443;-70
2022/10/25 02:02:00;;;;;;;23.63;17.00;;;;;;;;;;768944;181;905827;-74
2022/10/25 02:04:27;;;;;;;26.23;17.10;;;;;;;;;;751551;182;918486;-70
2022/10/25 02:07:03;;;;;;;28.03;17.80;;;;;;;;;;764646;182;913847;-71
2022/10/25 02:09:30;;;;;;;24.70;16.07;;;;;;;;;;766926;180;918804;-73
2022/10/25 02:11:56;;;;;;;24.77;15.27;;;;;;;;;;765688;181;919472;-72
2022/10/25 02:14:23;;;;;;;22.53;15.67;;;;;;;;;;766657;180;916709;-74
2022/10/25 02:16:50;;;;;;;19.40;14.40;;;;;;;;;;762657;180;914776;-74
2022/10/25 02:19:16;;;;;;;28.65;14.10;;;;;;;;;;766190;180;917861;-70
2022/10/25 02:21:42;;;;;;;23.33;15.37;;;;;;;;;;764658;179;918764;-74
2022/10/25 02:24:07;;;;;;;23.70;14.87;;;;;;;;;;755217;183;896121;-71
2022/10/25 02:26:33;;;;;;;24.03;15.13;;;;;;;;;;763362;180;918504;-74
2022/10/25 02:28:59;;;;;;;27.60;15.07;;;;;;;;;;770817;180;931766;-74
2022/10/25 02:31:25;;;;;;;31.33;17.20;;;;;;;;;;763996;181;922241;-75
2022/10/25 02:33:51;;;;;;;24.17;15.07;;;;;;;;;;764826;181;918682;-75
2022/10/25 02:36:18;;;;;;;25.60;16.03;;;;;;;;;;766683;181;933852;-70
2022/10/25 02:38:43;;;;;;;28.00;15.55;;;;;;;;;;763232;180;918939;-71
2022/10/25 02:41:09;;;;;;;22.17;13.77;;;;;;;;;;748019;179;940755;-74
2022/10/25 02:43:35;;;;;;;26.97;16.20;;;;;;;;;;756868;178;922120;-70
2022/10/25 02:46:07;;;;;;;29.90;15.87;;;;;;;;;;767057;181;921296;-74
2022/10/25 02:48:33;;;;;;;23.70;16.43;;;;;;;;;;764359;179;906906;-74
2022/10/25 02:50:59;;;;;;;28.57;15.57;;;;;;;;;;759346;180;920457;-74
2022/10/25 02:53:25;;;;;;;26.07;14.47;;;;;;;;;;761832;179;918489;-73
2022/10/25 02:56:06;;;;;;;28.97;15.37;;;;;;;;;;762850;183;816860;-75
2022/10/25 02:58:32;;;;;;;21.20;14.27;;;;;;;;;;762008;182;841634;-71
2022/10/25 03:00:58;;;;;;;26.23;16.30;;;;;;;;;;755908;183;815757;-76
2022/10/25 03:03:24;;;;;;;34.40;15.83;;;;;;;;;;749438;183;916771;-74
2022/10/25 03:05:49;;;;;;;22.80;11.43;;;;;;;;;;754998;183;939405;-76
2022/10/25 03:08:15;;;;;;;31.50;12.93;;;;;;;;;;751759;183;924096;-71
2022/10/25 03:10:41;;;;;;;24.87;12.88;;;;;;;;;;754536;183;922716;-71
2022/10/25 03:13:07;;;;;;;63.17;13.30;;;;;;;;;;754109;183;918902;-71
2022/10/25 03:15:33;;;;;;;45.03;13.33;;;;;;;;;;762810;181;918393;-71
2022/10/25 03:17:59;;;;;;;29.03;12.80;;;;;;;;;;766078;181;926382;-75
2022/10/25 03:20:25;;;;;;;35.53;15.10;;;;;;;;;;769123;181;900155;-75
2022/10/25 03:22:51;;;;;;;42.33;15.20;;;;;;;;;;764246;181;916097;-72
2022/10/25 03:25:17;;;;;;;57.37;14.67;;;;;;;;;;763614;180;878728;-72
2022/10/25 03:27:42;;;;;;;90.70;16.30;;;;;;;;;;762801;181;917719;-70
2022/10/25 03:30:09;;;;;;;47.58;15.15;;;;;;;;;;762849;181;918280;-71
2022/10/25 03:32:35;;;;;;;41.93;12.73;;;;;;;;;;763417;181;816766;-75
2022/10/25 03:35:00;;;;;;;31.50;14.60;;;;;;;;;;764184;181;919687;-71
2022/10/25 03:37:26;;;;;;;44.00;14.57;;;;;;;;;;768916;179;806907;-69
2022/10/25 03:39:53;;;;;;;27.80;14.20;;;;;;;;;;761006;177;907198;-75
2022/10/25 03:42:18;;;;;;;35.43;14.47;;;;;;;;;;765272;180;814464;-72
2022/10/25 03:44:44;;;;;;;25.43;13.13;;;;;;;;;;766853;181;918256;-74
2022/10/25 03:47:10;;;;;;;27.05;13.45;;;;;;;;;;762954;180;917887;-71
2022/10/25 03:49:36;;;;;;;23.50;13.37;;;;;;;;;;763876;181;917103;-71
2022/10/25 03:52:04;;;;;;;22.90;14.20;;;;;;;;;;769500;181;919713;-71
2022/10/25 03:54:28;;;;;;;23.50;12.93;;;;;;;;;;763419;182;919560;-71
2022/10/25 03:56:54;;;;;;;32.67;15.30;;;;;;;;;;761787;181;945418;-71
2022/10/25 03:59:20;;;;;;;30.00;14.77;;;;;;;;;;762717;181;924354;-72
2022/10/25 04:01:46;;;;;;;23.20;13.70;;;;;;;;;;769105;181;920253;-71
2022/10/25 04:04:12;;;;;;;25.33;12.70;;;;;;;;;;767046;180;936199;-75
2022/10/25 04:06:37;;;;;;;27.63;13.83;;;;;;;;;;767309;179;822840;-75
2022/10/25 04:09:03;;;;;;;24.87;13.53;;;;;;;;;;769323;181;924393;-71
2022/10/25 04:11:29;;;;;;;18.60;12.23;;;;;;;;;;766214;180;874341;-71
2022/10/25 04:13:55;;;;;;;19.10;12.80;;;;;;;;;;764480;181;918163;-75
2022/10/25 04:16:22;;;;;;;19.30;13.40;;;;;;;;;;770270;181;879445;-70
2022/10/25 04:18:47;;;;;;;19.67;12.03;;;;;;;;;;766461;179;885447;-75
2022/10/25 04:21:13;;;;;;;31.27;12.43;;;;;;;;;;754298;183;817489;-70
2022/10/25 04:23:38;;;;;;;26.20;11.40;;;;;;;;;;753791;183;910794;-74
2022/10/25 04:26:04;;;;;;;26.50;10.80;;;;;;;;;;752814;183;918315;-75
2022/10/25 04:28:30;;;;;;;33.87;12.53;;;;;;;;;;765635;178;921009;-70
2022/10/25 04:30:56;;;;;;;20.27;11.83;;;;;;;;;;765533;180;927594;-69
2022/10/25 04:33:22;;;;;;;32.13;11.40;;;;;;;;;;766213;178;916650;-73
2022/10/25 04:35:51;;;;;;;42.77;11.80;;;;;;;;;;764093;180;919567;-69
2022/10/25 04:38:17;;;;;;;28.30;12.30;;;;;;;;;;766982;181;810216;-74
2022/10/25 04:40:43;;;;;;;46.80;12.63;;;;;;;;;;766242;181;820416;-74
2022/10/25 04:43:09;;;;;;;40.67;12.40;;;;;;;;;;765444;182;814575;-74
2022/10/25 04:45:34;;;;;;;44.73;12.30;;;;;;;;;;761191;180;918114;-70
2022/10/25 04:48:00;;;;;;;47.03;13.53;;;;;;;;;;764302;181;919210;-74
2022/10/25 04:50:26;;;;;;;52.30;13.97;;;;;;;;;;769943;180;914091;-74
2022/10/25 04:52:52;;;;;;;70.03;13.30;;;;;;;;;;769445;180;814747;-70
2022/10/25 04:55:18;;;;;;;49.97;11.77;;;;;;;;;;766502;177;639237;-69
2022/10/25 04:57:44;;;;;;;55.70;12.50;;;;;;;;;;766627;181;911715;-69
2022/10/25 05:00:10;;;;;;;39.87;12.27;;;;;;;;;;753138;183;878592;-73
2022/10/25 05:02:36;;;;;;;86.27;15.00;;;;;;;;;;753768;183;629813;-73
2022/10/25 05:05:02;;;;;;;75.47;14.30;;;;;;;;;;762839;183;632644;-72
2022/10/25 05:07:27;;;;;;;46.23;14.13;;;;;;;;;;758661;181;815937;-71
2022/10/25 05:09:53;;;;;;;82.05;17.05;;;;;;;;;;765118;181;918473;-73
2022/10/25 05:12:19;;;;;;;88.33;15.00;;;;;;;;;;765146;179;817254;-72
2022/10/25 05:14:45;;;;;;;78.20;16.07;;;;;;;;;;773363;180;916625;-69
2022/10/25 05:17:11;;;;;;;75.32;16.33;;;;;;;;;;767935;181;818290;-69
2022/10/25 05:19:37;;;;;;;66.55;15.18;;;;;;;;;;766742;178;919052;-70
2022/10/25 05:22:03;;;;;;;81.03;15.87;;;;;;;;;;770815;181;917166;-72
2022/10/25 05:24:28;;;;;;;34.10;16.17;;;;;;;;;;763739;181;926086;-73
2022/10/25 05:26:54;;;;;;;36.37;15.60;;;;;;;;;;765149;181;918899;-74
2022/10/25 05:29:20;;;;;;;38.80;16.77;;;;;;;;;;770108;179;918992;-70
2022/10/25 05:31:46;;;;;;;26.30;14.70;;;;;;;;;;763423;179;922518;-70
2022/10/25 05:34:12;;;;;;;22.13;13.27;;;;;;;;;;764374;181;921511;-71
2022/10/25 05:36:38;;;;;;;22.80;13.13;;;;;;;;;;763708;181;919763;-73
2022/10/25 05:39:04;;;;;;;18.03;11.73;;;;;;;;;;755319;183;911342;-70
2022/10/25 05:41:30;;;;;;;18.48;13.10;;;;;;;;;;741424;184;920974;-73
2022/10/25 05:43:55;;;;;;;19.93;13.60;;;;;;;;;;756428;183;818823;-72
2022/10/25 05:46:21;;;;;;;20.33;14.13;;;;;;;;;;758315;183;816077;-72
2022/10/25 05:48:47;;;;;;;26.77;13.93;;;;;;;;;;744668;184;918707;-70
2022/10/25 05:51:13;;;;;;;25.23;15.43;;;;;;;;;;743466;183;917544;-69
2022/10/25 05:53:40;;;;;;;22.00;13.60;;;;;;;;;;752011;183;912640;-70
2022/10/25 05:56:06;;;;;;;27.20;14.57;;;;;;;;;;752861;183;914646;-71
2022/10/25 05:58:32;;;;;;;27.83;13.90;;;;;;;;;;757541;183;844229;-74
2022/10/25 06:00:58;;;;;;;22.23;13.97;;;;;;;;;;750188;183;918776;-72
2022/10/25 06:03:24;;;;;;;26.73;14.60;;;;;;;;;;762665;183;913663;-72
2022/10/25 06:05:50;;;;;;;34.73;15.23;;;;;;;;;;753516;183;917874;-70
2022/10/25 06:08:16;;;;;;;24.40;14.33;;;;;;;;;;751545;183;924024;-69
2022/10/25 06:10:42;;;;;;;23.17;15.67;;;;;;;;;;754584;183;912553;-68
2022/10/25 06:13:07;;;;;;;16.95;12.95;;;;;;;;;;750590;183;912247;-69
2022/10/25 06:15:33;;;;;;;24.60;13.87;;;;;;;;;;760804;181;914305;-71
2022/10/25 06:17:59;;;;;;;22.50;12.80;;;;;;;;;;770449;180;879239;-68
2022/10/25 06:20:25;;;;;;;17.80;12.90;;;;;;;;;;766948;180;916158;-68
2022/10/25 06:22:51;;;;;;;20.70;13.10;;;;;;;;;;763666;181;893336;-69
2022/10/25 06:25:17;;;;;;;20.60;13.43;;;;;;;;;;767115;181;904295;-68
2022/10/25 06:27:43;;;;;;;20.90;14.77;;;;;;;;;;754394;182;918759;-73
2022/10/25 06:30:09;;;;;;;28.20;16.13;;;;;;;;;;767110;179;917180;-68
2022/10/25 06:32:36;;;;;;;38.40;17.07;;;;;;;;;;766279;179;922826;-72
2022/10/25 06:35:01;;;;;;;36.93;15.60;;;;;;;;;;773013;181;819611;-68
2022/10/25 06:37:27;;;;;;;26.87;14.73;;;;;;;;;;762337;180;912972;-70
2022/10/25 06:39:52;;;;;;;32.40;15.80;;;;;;;;;;762130;177;911721;-68
2022/10/25 06:42:18;;;;;;;36.30;16.93;;;;;;;;;;762653;183;912031;-72
2022/10/25 06:44:44;;;;;;;39.45;17.75;;;;;;;;;;752980;184;919596;-69
2022/10/25 06:47:10;;;;;;;34.40;16.60;;;;;;;;;;750858;183;919404;-68
2022/10/25 06:49:37;;;;;;;38.35;19.05;;;;;;;;;;759066;183;919482;-71
2022/10/25 06:52:02;;;;;;;38.90;18.90;;;;;;;;;;759059;181;916725;-73
2022/10/25 06:54:28;;;;;;;30.53;18.30;;;;;;;;;;750977;183;917097;-73
2022/10/25 06:56:54;;;;;;;30.90;16.60;;;;;;;;;;751115;183;813805;-70
2022/10/25 06:59:20;;;;;;;28.30;17.23;;;;;;;;;;768959;181;932415;-69
2022/10/25 07:01:46;;;;;;;23.60;15.13;;;;;;;;;;765990;181;914452;-68
2022/10/25 07:04:12;;;;;;;30.00;15.70;;;;;;;;;;765303;181;916515;-73
2022/10/25 07:06:38;;;;;;;25.07;16.50;;;;;;;;;;769736;180;939444;-73
2022/10/25 07:09:03;;;;;;;24.70;16.27;;;;;;;;;;762877;179;918190;-74
2022/10/25 07:11:29;;;;;;;24.60;16.60;;;;;;;;;;763195;181;917025;-68
2022/10/25 07:13:57;;;;;;;22.67;14.83;;;;;;;;;;765211;179;918765;-72
2022/10/25 07:16:21;;;;;;;18.70;13.70;;;;;;;;;;757686;179;918945;-68
2022/10/25 07:18:47;;;;;;;19.27;12.83;;;;;;;;;;760795;178;918820;-73
2022/10/25 07:21:16;;;;;;;23.93;15.10;;;;;;;;;;754273;183;919028;-72
2022/10/25 07:23:41;;;;;;;23.07;12.60;;;;;;;;;;753260;184;922494;-68
2022/10/25 07:26:10;;;;;;;19.83;12.47;;;;;;;;;;750944;183;817776;-71
2022/10/25 07:28:36;;;;;;;19.60;13.53;;;;;;;;;;761657;179;917860;-73
2022/10/25 07:31:02;;;;;;;20.90;13.53;;;;;;;;;;764249;180;900528;-71
2022/10/25 07:33:28;;;;;;;18.70;13.33;;;;;;;;;;757871;179;916791;-67
2022/10/25 07:35:53;;;;;;;23.93;15.40;;;;;;;;;;764833;181;817119;-71
2022/10/25 07:38:19;;;;;;;23.47;14.80;;;;;;;;;;769051;180;914440;-70
2022/10/25 07:40:45;;;;;;;20.60;13.27;;;;;;;;;;773402;181;919409;-69
2022/10/25 07:43:11;;;;;;;16.67;12.73;;;;;;;;;;767328;181;914296;-68
2022/10/25 07:45:37;;;;;;;22.13;13.77;;;;;;;;;;767038;178;815324;-69
2022/10/25 07:48:03;;;;;;;18.30;13.30;;;;;;;;;;771050;181;913277;-68
2022/10/25 07:50:29;;;;;;;18.20;12.77;;;;;;;;;;765672;181;911615;-68
2022/10/25 07:52:56;;;;;;;17.13;11.00;;;;;;;;;;767495;180;909533;-68
2022/10/25 07:55:20;;;;;;;14.83;11.37;;;;;;;;;;771553;179;906503;-68
2022/10/25 07:57:46;;;;;;;15.30;11.57;;;;;;;;;;758125;178;919196;-72
2022/10/25 08:00:12;;;;;;;14.60;10.70;;;;;;;;;;747660;184;918458;-71
2022/10/25 08:02:38;;;;;;;19.53;10.03;;;;;;;;;;751887;181;920484;-70
2022/10/25 08:05:08;;;;;;;13.20;10.37;;;;;;;;;;749781;183;914369;-70
2022/10/25 08:07:31;;;;;;;16.63;11.33;;;;;;;;;;764428;181;820140;-68
2022/10/25 08:09:57;;;;;;;17.97;10.33;;;;;;;;;;763941;181;926751;-71
2022/10/25 08:12:23;;;;;;;14.00;10.17;;;;;;;;;;769217;179;915824;-68
2022/10/25 08:14:49;;;;;;;11.60;8.70;;;;;;;;;;766282;181;917501;-69
2022/10/25 08:17:16;;;;;;;20.27;12.10;;;;;;;;;;765146;181;918804;-71
2022/10/25 08:19:41;;;;;;;13.57;9.70;;;;;;;;;;769273;181;911409;-68
2022/10/25 08:22:06;;;;;;;13.80;10.63;;;;;;;;;;763518;179;913213;-68
2022/10/25 08:24:34;;;;;;;13.07;10.70;;;;;;;;;;764217;179;920655;-71
2022/10/25 08:26:58;;;;;;;12.23;9.40;;;;;;;;;;764701;179;920325;-71
2022/10/25 08:29:24;;;;;;;19.83;9.10;;;;;;;;;;770227;180;920651;-73
2022/10/25 08:31:50;;;;;;;11.27;8.63;;;;;;;;;;750621;183;905269;-69
2022/10/25 08:34:16;;;;;;;12.00;8.93;;;;;;;;;;749309;183;952328;-69
2022/10/25 08:36:42;;;;;;;12.27;9.27;;;;;;;;;;759024;183;715308;-72
2022/10/25 08:39:08;;;;;;;11.63;8.20;;;;;;;;;;751459;183;915905;-72
2022/10/25 08:41:47;;;;;;;10.93;9.10;;;;;;;;;;750195;183;883109;-69
2022/10/25 08:44:16;;;;;;;12.00;8.97;;;;;;;;;;750293;183;915862;-69
2022/10/25 08:46:43;;;;;;;13.33;8.87;;;;;;;;;;759009;183;711209;-69
2022/10/25 08:49:09;;;;;;;12.03;9.10;;;;;;;;;;754500;180;919198;-70
2022/10/25 08:51:35;;;;;;;11.27;8.03;;;;;;;;;;755944;181;917149;-70
2022/10/25 08:54:01;;;;;;;11.83;8.70;;;;;;;;;;766811;179;900787;-69
2022/10/25 08:56:27;;;;;;;12.40;10.07;;;;;;;;;;763737;181;812895;-70
2022/10/25 08:58:53;;;;;;;14.20;11.47;;;;;;;;;;746405;184;926138;-69
2022/10/25 09:01:20;;;;;;;16.90;11.30;;;;;;;;;;748188;183;919923;-68
2022/10/25 09:03:46;;;;;;;11.80;9.90;;;;;;;;;;756576;183;915760;-72
2022/10/25 09:06:17;;;;;;;14.50;10.33;;;;;;;;;;762504;181;919577;-68
2022/10/25 09:08:45;;;;;;;12.73;10.07;;;;;;;;;;762456;180;919217;-68
2022/10/25 09:11:13;;;;;;;12.37;9.53;;;;;;;;;;753797;183;880292;-70
2022/10/25 09:13:42;;;;;;;11.50;8.20;;;;;;;;;;756103;183;818132;-68
2022/10/25 09:16:09;;;;;;;11.87;7.47;;;;;;;;;;763687;180;918265;-70
2022/10/25 09:18:39;;;;;;;11.67;7.80;;;;;;;;;;761847;179;920553;-68
2022/10/25 09:21:04;;;;;;;13.53;7.77;;;;;;;;;;766880;180;815199;-69
2022/10/25 09:23:30;;;;;;;13.07;8.27;;;;;;;;;;770079;181;919033;-70
2022/10/25 09:26:01;;;;;;;13.33;9.60;;;;;;;;;;761963;181;917815;-72
2022/10/25 09:28:28;;;;;;;11.43;8.80;;;;;;;;;;764912;180;825916;-69
2022/10/25 09:30:54;;;;;;;11.97;9.40;;;;;;;;;;768611;181;812751;-68
2022/10/25 09:33:19;;;;;;;10.50;8.90;;;;;;;;;;765527;180;909983;-71
2022/10/25 09:35:47;;;;;;;11.27;9.60;;;;;;;;;;762921;179;918829;-70
2022/10/25 09:38:14;;;;;;;11.13;8.77;;;;;;;;;;765206;181;911046;-69
2022/10/25 09:40:48;;;;;;;9.60;7.55;;;;;;;;;;769340;180;918013;-68
2022/10/25 09:43:16;;;;;;;8.90;8.00;;;;;;;;;;756127;181;909250;-68
2022/10/25 09:45:43;;;;;;;10.60;8.27;;;;;;;;;;745250;183;917549;-72
2022/10/25 09:48:14;;;;;;;10.30;9.00;;;;;;;;;;765556;180;915064;-67
2022/10/25 09:50:54;;;;;;;13.03;9.40;;;;;;;;;;770868;180;915627;-68
2022/10/25 09:53:20;;;;;;;11.50;8.27;;;;;;;;;;765252;181;915657;-70
2022/10/25 09:55:48;;;;;;;9.73;7.83;;;;;;;;;;764465;181;919421;-72
2022/10/25 09:58:14;;;;;;;10.67;7.50;;;;;;;;;;768286;181;718258;-70
2022/10/25 10:00:40;;;;;;;8.37;6.93;;;;;;;;;;770227;181;625226;-73
2022/10/25 10:03:06;;;;;;;10.30;7.87;;;;;;;;;;759772;182;915907;-71
2022/10/25 10:05:32;;;;;;;17.83;8.17;;;;;;;;;;763197;181;918909;-72
2022/10/25 10:07:58;;;;;;;8.37;6.97;;;;;;;;;;764470;181;917728;-71
2022/10/25 10:10:25;;;;;;;11.27;6.47;;;;;;;;;;770344;181;880825;-71
2022/10/25 10:12:52;;;;;;;10.48;6.85;;;;;;;;;;766762;181;918189;-70
2022/10/25 10:15:24;;;;;;;8.87;7.33;;;;;;;;;;764285;180;918303;-67
2022/10/25 10:17:56;;;;;;;8.20;5.97;;;;;;;;;;766353;180;921243;-71
2022/10/25 10:20:22;;;;;;;9.77;6.83;;;;;;;;;;773460;179;926748;-70
2022/10/25 10:22:47;;;;;;;10.40;6.07;;;;;;;;;;758992;180;918409;-69
2022/10/25 10:25:14;;;;;;;9.68;6.05;;;;;;;;;;765237;180;920845;-69
2022/10/25 10:27:40;;;;;;;9.50;5.93;;;;;;;;;;768743;181;815958;-72
2022/10/25 10:30:06;;;;;;;8.63;5.70;;;;;;;;;;763169;181;900389;-69
2022/10/25 10:32:33;;;;;;;8.93;6.43;;;;;;;;;;750458;183;915878;-71
2022/10/25 10:34:59;;;;;;;7.20;5.87;;;;;;;;;;752489;183;1019793;-70
2022/10/25 10:37:25;;;;;;;9.80;5.67;;;;;;;;;;769443;183;911058;-68
2022/10/25 10:39:51;;;;;;;19.97;8.60;;;;;;;;;;752671;183;917692;-67
2022/10/25 10:42:17;;;;;;;9.40;6.90;;;;;;;;;;746475;185;919747;-68
2022/10/25 10:44:43;;;;;;;9.63;6.23;;;;;;;;;;748365;183;918758;-70
2022/10/25 10:47:09;;;;;;;8.27;5.67;;;;;;;;;;744569;183;919044;-67
2022/10/25 10:49:34;;;;;;;9.90;4.90;;;;;;;;;;753417;184;919313;-69
2022/10/25 10:52:01;;;;;;;5.90;4.33;;;;;;;;;;750372;184;918718;-69
2022/10/25 10:54:26;;;;;;;10.73;5.13;;;;;;;;;;764164;182;919910;-69
2022/10/25 10:56:53;;;;;;;6.20;4.10;;;;;;;;;;766856;179;916147;-70
2022/10/25 10:59:22;;;;;;;7.97;3.97;;;;;;;;;;764727;181;922392;-70
2022/10/25 11:01:48;;;;;;;6.27;4.33;;;;;;;;;;767945;178;918595;-71
2022/10/25 11:04:14;;;;;;;6.23;3.97;;;;;;;;;;764529;180;921536;-68
2022/10/25 11:06:40;;;;;;;8.40;4.87;;;;;;;;;;765400;180;920370;-67
2022/10/25 11:09:19;;;;;;;5.80;4.57;;;;;;;;;;771094;182;817059;-68
2022/10/25 11:11:44;;;;;;;10.90;5.17;;;;;;;;;;778020;178;817192;-69
2022/10/25 11:14:12;;;;;;;6.05;4.25;;;;;;;;;;758872;183;919197;-68
2022/10/25 11:16:48;;;;;;;6.90;5.07;;;;;;;;;;757008;181;918610;-70
2022/10/25 11:19:13;;;;;;;7.63;4.20;;;;;;;;;;767454;181;827834;-70
2022/10/25 11:21:57;;;;;;;6.23;3.60;;;;;;;;;;772753;179;816703;-69
2022/10/25 11:24:26;;;;;;;7.30;3.67;;;;;;;;;;777750;179;817377;-70
2022/10/25 11:26:52;;;;;;;5.40;3.90;;;;;;;;;;757837;181;919509;-68
2022/10/25 11:29:18;;;;;;;5.57;3.20;;;;;;;;;;751416;183;918907;-69
2022/10/25 11:31:47;;;;;;;4.17;2.93;;;;;;;;;;765557;181;919096;-70
2022/10/25 11:34:18;;;;;;;7.60;4.07;;;;;;;;;;762401;183;918524;-64
2022/10/25 11:36:44;;;;;;;6.70;4.40;;;;;;;;;;765950;181;918336;-68
2022/10/25 11:39:13;;;;;;;9.30;4.57;;;;;;;;;;764470;181;918770;-68
2022/10/25 11:41:40;;;;;;;8.20;4.80;;;;;;;;;;768846;181;918930;-67
2022/10/25 11:44:07;;;;;;;7.97;5.17;;;;;;;;;;769859;181;858420;-67
2022/10/25 11:46:38;;;;;;;7.00;6.30;;;;;;;;;;763990;181;919027;-66
2022/10/25 11:49:10;;;;;;;9.20;5.70;;;;;;;;;;767549;179;919028;-68
2022/10/25 11:51:38;;;;;;;10.00;6.72;;;;;;;;;;762730;181;921160;-65
2022/10/25 11:54:19;;;;;;;5.53;4.90;;;;;;;;;;760791;181;918767;-67
2022/10/25 11:56:46;;;;;;;5.40;4.50;;;;;;;;;;758595;184;919588;-67
2022/10/25 11:59:12;;;;;;;6.47;4.27;;;;;;;;;;759265;182;922997;-67
2022/10/25 12:01:43;;;;;;;7.03;5.37;;;;;;;;;;764893;182;918743;-66
2022/10/25 12:04:12;;;;;;;12.53;4.20;;;;;;;;;;761247;183;820164;-67
2022/10/25 12:06:39;;;;;;;6.77;4.37;;;;;;;;;;772441;180;917909;-67
2022/10/25 12:09:21;;;;;;;6.03;3.57;;;;;;;;;;769896;181;918455;-67
2022/10/25 12:11:47;;;;;;;7.25;4.22;;;;;;;;;;755547;181;919020;-66
2022/10/25 12:14:13;;;;;;;5.50;4.20;;;;;;;;;;766419;179;918815;-67
2022/10/25 12:16:39;;;;;;;9.53;4.30;;;;;;;;;;770157;181;921694;-67
2022/10/25 12:19:07;;;;;;;5.70;4.20;;;;;;;;;;765481;179;910154;-70
2022/10/25 12:21:37;;;;;;;6.87;4.60;;;;;;;;;;765895;180;923380;-67
2022/10/25 12:24:04;;;;;;;6.70;3.67;;;;;;;;;;765145;179;911981;-68
2022/10/25 12:26:32;;;;;;;6.60;4.40;;;;;;;;;;760930;180;816363;-68
2022/10/25 12:28:58;;;;;;;5.80;4.07;;;;;;;;;;750135;183;913315;-68
2022/10/25 12:31:24;;;;;;;7.43;3.90;;;;;;;;;;751908;183;897887;-67
2022/10/25 12:33:53;;;;;;;5.57;4.10;;;;;;;;;;768130;181;921583;-68
2022/10/25 12:36:23;;;;;;;6.20;3.47;;;;;;;;;;764611;181;901393;-67
2022/10/25 12:38:49;;;;;;;6.73;3.93;;;;;;;;;;765534;181;920041;-67
2022/10/25 12:41:15;;;;;;;4.53;3.47;;;;;;;;;;764430;181;918953;-67
2022/10/25 12:43:41;;;;;;;5.37;3.03;;;;;;;;;;770459;181;911328;-68
2022/10/25 12:46:07;;;;;;;6.27;3.33;;;;;;;;;;766835;181;920432;-70
2022/10/25 12:48:54;;;;;;;6.93;3.13;;;;;;;;;;763309;181;1018316;-67
2022/10/25 12:51:19;;;;;;;4.30;2.47;;;;;;;;;;761488;182;918374;-69
2022/10/25 12:54:00;;;;;;;6.70;2.50;;;;;;;;;;769736;181;919514;-69
2022/10/25 12:56:32;;;;;;;8.80;2.50;;;;;;;;;;771336;180;919859;-69
2022/10/25 12:59:02;;;;;;;7.90;2.57;;;;;;;;;;759690;183;919097;-69
2022/10/25 13:01:30;;;;;;;7.03;2.00;;;;;;;;;;763487;181;917938;-71
2022/10/25 13:03:57;;;;;;;3.70;2.27;;;;;;;;;;765511;181;920501;-69
2022/10/25 13:06:28;;;;;;;4.20;2.60;;;;;;;;;;770017;181;920250;-68
2022/10/25 13:08:55;;;;;;;5.30;2.37;;;;;;;;;;767237;180;922550;-69
2022/10/25 13:11:21;;;;;;;4.80;2.67;;;;;;;;;;754334;180;859173;-68
2022/10/25 13:13:47;;;;;;;5.97;2.60;;;;;;;;;;761915;181;919959;-69
2022/10/25 13:16:13;;;;;;;5.13;2.40;;;;;;;;;;771321;181;919244;-69
2022/10/25 13:18:39;;;;;;;7.60;2.87;;;;;;;;;;753531;183;839722;-70
2022/10/25 13:21:06;;;;;;;6.10;1.97;;;;;;;;;;747816;183;870930;-68
2022/10/25 13:23:37;;;;;;;4.90;1.90;;;;;;;;;;748504;183;921604;-68
2022/10/25 13:26:03;;;;;;;6.40;2.20;;;;;;;;;;770827;180;804261;-69
2022/10/25 13:28:28;;;;;;;6.40;2.30;;;;;;;;;;765100;178;821355;-68
2022/10/25 13:30:54;;;;;;;5.60;2.20;;;;;;;;;;756559;180;915423;-68
2022/10/25 13:33:27;;;;;;;4.20;2.17;;;;;;;;;;750185;183;819819;-68
2022/10/25 13:35:56;;;;;;;6.80;2.13;;;;;;;;;;774959;177;788514;-69
2022/10/25 13:38:22;;;;;;;4.77;1.80;;;;;;;;;;756002;180;990560;-70
2022/10/25 13:40:53;;;;;;;12.07;2.63;;;;;;;;;;764257;179;915888;-70
2022/10/25 13:43:19;;;;;;;7.20;2.00;;;;;;;;;;755195;183;916886;-69
2022/10/25 13:45:45;;;;;;;5.30;2.40;;;;;;;;;;759633;180;916154;-67
2022/10/25 13:48:16;;;;;;;6.77;2.90;;;;;;;;;;765615;179;838443;-68
2022/10/25 13:50:42;;;;;;;4.33;2.30;;;;;;;;;;765010;179;918722;-69
2022/10/25 13:53:26;;;;;;;4.70;2.97;;;;;;;;;;769475;179;911496;-68
2022/10/25 13:56:04;;;;;;;4.87;2.70;;;;;;;;;;783548;173;919064;-66
2022/10/25 13:58:33;;;;;;;4.60;2.53;;;;;;;;;;768152;181;917085;-67
2022/10/25 14:01:19;;;;;;;4.17;2.70;;;;;;;;;;749426;181;919137;-67
2022/10/25 14:03:47;;;;;;;6.80;2.77;;;;;;;;;;749172;182;921166;-69
2022/10/25 14:06:12;;;;;;;5.80;3.17;;;;;;;;;;770949;180;912269;-69
2022/10/25 14:08:46;;;;;;;8.27;2.93;;;;;;;;;;775480;177;920524;-71
2022/10/25 14:11:15;;;;;;;8.50;2.57;;;;;;;;;;777759;180;911100;-70
2022/10/25 14:13:59;;;;;;;6.27;2.67;;;;;;;;;;764982;180;915830;-69